createdAt,value
2022-10-09T00:07:25.385Z,18.2
2022-10-09T00:17:27.959Z,18.2
2022-10-09T00:27:30.557Z,18.2
2022-10-09T00:37:32.959Z,18.1
2022-10-09T00:47:35.590Z,18.1
2022-10-09T00:57:38.273Z,18.1
2022-10-09T01:07:40.817Z,18.1
2022-10-09T01:17:43.308Z,18.1
2022-10-09T01:27:45.737Z,18.1
2022-10-09T01:37:47.719Z,18.1
2022-10-09T01:47:49.855Z,18.1
2022-10-09T01:57:52.103Z,18.1
2022-10-09T02:07:54.545Z,18.1
2022-10-09T02:17:56.778Z,18.1
2022-10-09T02:27:58.637Z,18.1
2022-10-09T02:38:00.534Z,18
2022-10-09T02:48:02.543Z,18
2022-10-09T02:58:04.591Z,18
2022-10-09T03:18:09.073Z,18
2022-10-09T03:28:11.711Z,18
2022-10-09T03:38:13.991Z,18
2022-10-09T03:48:15.818Z,18
2022-10-09T03:58:18.023Z,18
2022-10-09T04:08:20.544Z,18
2022-10-09T04:18:23.051Z,18
2022-10-09T04:28:25.241Z,18
2022-10-09T04:48:29.450Z,17.9
2022-10-09T04:58:32.130Z,17.9
2022-10-09T05:08:34.467Z,17.9
2022-10-09T05:28:38.931Z,17.9
2022-10-09T05:38:41.082Z,17.9
2022-10-09T05:48:43.156Z,17.9
2022-10-09T05:58:45.528Z,17.9
2022-10-09T06:08:47.720Z,17.9
2022-10-09T06:18:50.283Z,17.9
2022-10-09T06:28:52.074Z,17.9
2022-10-09T06:38:54.375Z,18
2022-10-09T06:48:56.216Z,18
2022-10-09T06:58:58.708Z,18.1
2022-10-09T07:09:00.573Z,18.1
2022-10-09T07:19:02.508Z,18.2
2022-10-09T07:29:04.728Z,18.3
2022-10-09T07:39:07.318Z,18.4
2022-10-09T07:49:09.275Z,18.6
2022-10-09T07:59:11.382Z,18.7
2022-10-09T08:09:13.486Z,18.7
2022-10-09T08:19:15.201Z,18.8
2022-10-09T08:29:17.476Z,18.8
2022-10-09T08:39:19.642Z,18.8
2022-10-09T08:49:21.646Z,18.9
2022-10-09T08:59:23.674Z,18.9
2022-10-09T09:09:25.392Z,18.9
2022-10-09T09:19:27.527Z,18.9
2022-10-09T09:29:29.665Z,19
2022-10-09T09:49:33.965Z,19
2022-10-09T09:59:36.661Z,19
2022-10-09T10:19:41.565Z,19.1
2022-10-09T10:29:43.780Z,19.1
2022-10-09T10:49:48.279Z,19.1
2022-10-09T10:59:50.342Z,19.1
2022-10-09T11:09:52.903Z,19.1
2022-10-09T11:19:54.671Z,19.1
2022-10-09T11:39:58.653Z,19.2
2022-10-09T11:50:00.727Z,19.2
2022-10-09T12:00:02.675Z,19.2
2022-10-09T12:10:04.455Z,19.2
2022-10-09T12:20:06.467Z,19.2
2022-10-09T12:30:08.461Z,19.2
2022-10-09T12:40:10.376Z,19.2
2022-10-09T13:00:15.053Z,19.2
2022-10-09T13:10:17.228Z,19.2
2022-10-09T13:20:19.750Z,19.2
2022-10-09T13:40:23.278Z,19.2
2022-10-09T13:50:25.931Z,19.2
2022-10-09T14:00:28.262Z,19.1
2022-10-09T14:10:30.563Z,19.1
2022-10-09T14:20:32.300Z,19.1
2022-10-09T14:30:34.427Z,19.1
2022-10-09T14:40:36.909Z,19.1
2022-10-09T14:50:39.402Z,19.1
2022-10-09T15:00:41.221Z,19.1
2022-10-09T15:10:43.891Z,19.1
2022-10-09T15:20:45.907Z,19.1
2022-10-09T15:30:47.658Z,19.1
2022-10-09T15:40:49.895Z,19.1
2022-10-09T15:50:51.607Z,19.1
2022-10-09T16:00:54.230Z,19.1
2022-10-09T16:11:03.876Z,19.1
2022-10-09T16:21:06.343Z,19.1
2022-10-09T16:31:08.257Z,19.1
2022-10-09T16:41:10.247Z,19.1
2022-10-09T16:51:12.223Z,19.1
2022-10-09T17:01:14.937Z,19.1
2022-10-09T17:11:17.012Z,19.1
2022-10-09T17:21:19.624Z,19.1
2022-10-09T17:31:22.161Z,19.1
2022-10-09T17:41:24.304Z,19.1
2022-10-09T17:51:26.947Z,19.1
2022-10-09T18:01:28.907Z,19
2022-10-09T18:11:31.162Z,19
2022-10-09T18:21:33.344Z,19
2022-10-09T18:31:35.696Z,19
2022-10-09T18:41:38.116Z,19
2022-10-09T18:51:40.024Z,19
2022-10-09T19:01:42.470Z,19
2022-10-09T19:11:45.057Z,19
2022-10-09T19:21:47.515Z,19
2022-10-09T19:31:49.412Z,19
2022-10-09T19:41:51.270Z,19
2022-10-09T19:51:52.972Z,19
2022-10-09T20:01:57.471Z,19
2022-10-09T20:11:57.484Z,19
2022-10-09T20:21:59.384Z,18.9
2022-10-09T20:32:01.941Z,18.9
2022-10-09T20:42:04.221Z,18.9
2022-10-09T20:52:05.948Z,18.9
2022-10-09T21:02:08.246Z,18.9
2022-10-09T21:12:10.227Z,18.9
2022-10-09T21:22:12.102Z,18.9
2022-10-09T21:32:14.254Z,18.9
2022-10-09T21:42:16.052Z,18.9
2022-10-09T21:52:17.943Z,18.9
2022-10-09T22:02:20.297Z,18.9
2022-10-09T22:12:22.913Z,18.9
2022-10-09T22:22:25.333Z,18.8
2022-10-09T22:32:27.411Z,18.8
2022-10-09T22:42:29.805Z,18.8
2022-10-09T22:52:32.083Z,18.8
2022-10-09T23:02:34.281Z,18.8
2022-10-09T23:12:36.755Z,18.8
2022-10-09T23:22:38.623Z,18.8
2022-10-09T23:32:41.183Z,18.8
2022-10-09T23:42:43.508Z,18.8
2022-10-09T23:52:45.892Z,18.8
